sensor_id;sensor_type;location;lat;lon;timestamp;P1;durP1;ratioP1;P2;durP2;ratioP2
18576;SDS011;9418;52.694;13.294;2023-12-20T00:01:27;2.77;;;2.60;;
18576;SDS011;9418;52.694;13.294;2023-12-20T00:03:53;4.50;;;2.47;;
18576;SDS011;9418;52.694;13.294;2023-12-20T00:06:20;2.80;;;2.60;;
18576;SDS011;9418;52.694;13.294;2023-12-20T00:08:48;3.40;;;2.73;;
18576;SDS011;9418;52.694;13.294;2023-12-20T00:11:14;3.10;;;3.00;;
18576;SDS011;9418;52.694;13.294;2023-12-20T00:13:41;2.90;;;2.80;;
18576;SDS011;9418;52.694;13.294;2023-12-20T00:16:07;3.07;;;2.97;;
18576;SDS011;9418;52.694;13.294;2023-12-20T00:18:35;3.03;;;2.93;;
18576;SDS011;9418;52.694;13.294;2023-12-20T00:21:02;3.13;;;3.03;;
18576;SDS011;9418;52.694;13.294;2023-12-20T00:23:29;2.70;;;2.60;;
18576;SDS011;9418;52.694;13.294;2023-12-20T00:25:57;3.53;;;3.33;;
18576;SDS011;9418;52.694;13.294;2023-12-20T00:28:23;3.17;;;2.93;;
18576;SDS011;9418;52.694;13.294;2023-12-20T00:30:50;2.90;;;2.80;;
18576;SDS011;9418;52.694;13.294;2023-12-20T00:33:16;5.27;;;2.83;;
18576;SDS011;9418;52.694;13.294;2023-12-20T00:35:43;2.83;;;2.73;;
18576;SDS011;9418;52.694;13.294;2023-12-20T00:38:09;4.30;;;2.90;;
18576;SDS011;9418;52.694;13.294;2023-12-20T00:40:36;2.40;;;2.30;;
18576;SDS011;9418;52.694;13.294;2023-12-20T00:43:04;2.37;;;2.27;;
18576;SDS011;9418;52.694;13.294;2023-12-20T00:45:31;2.80;;;2.60;;
18576;SDS011;9418;52.694;13.294;2023-12-20T00:47:57;2.73;;;2.63;;
18576;SDS011;9418;52.694;13.294;2023-12-20T00:50:25;2.17;;;2.07;;
18576;SDS011;9418;52.694;13.294;2023-12-20T00:52:51;2.70;;;2.60;;
18576;SDS011;9418;52.694;13.294;2023-12-20T00:55:19;2.53;;;2.43;;
18576;SDS011;9418;52.694;13.294;2023-12-20T00:57:46;2.40;;;2.30;;
18576;SDS011;9418;52.694;13.294;2023-12-20T01:00:14;2.40;;;2.03;;
18576;SDS011;9418;52.694;13.294;2023-12-20T01:02:41;1.70;;;1.70;;
18576;SDS011;9418;52.694;13.294;2023-12-20T01:05:08;2.17;;;2.07;;
18576;SDS011;9418;52.694;13.294;2023-12-20T01:07:34;2.40;;;2.20;;
18576;SDS011;9418;52.694;13.294;2023-12-20T01:10:01;2.53;;;2.33;;
18576;SDS011;9418;52.694;13.294;2023-12-20T01:12:28;2.53;;;2.43;;
18576;SDS011;9418;52.694;13.294;2023-12-20T01:14:54;4.03;;;2.50;;
18576;SDS011;9418;52.694;13.294;2023-12-20T01:17:22;2.10;;;2.00;;
18576;SDS011;9418;52.694;13.294;2023-12-20T01:19:49;2.43;;;2.33;;
18576;SDS011;9418;52.694;13.294;2023-12-20T01:22:15;1.83;;;1.83;;
18576;SDS011;9418;52.694;13.294;2023-12-20T01:24:42;2.20;;;2.10;;
18576;SDS011;9418;52.694;13.294;2023-12-20T01:27:08;1.90;;;1.80;;
18576;SDS011;9418;52.694;13.294;2023-12-20T01:29:35;1.83;;;1.83;;
18576;SDS011;9418;52.694;13.294;2023-12-20T01:32:02;2.30;;;2.20;;
18576;SDS011;9418;52.694;13.294;2023-12-20T01:34:30;2.53;;;2.00;;
18576;SDS011;9418;52.694;13.294;2023-12-20T01:36:56;3.13;;;3.00;;
18576;SDS011;9418;52.694;13.294;2023-12-20T01:39:23;2.00;;;1.90;;
18576;SDS011;9418;52.694;13.294;2023-12-20T01:41:49;2.10;;;2.00;;
18576;SDS011;9418;52.694;13.294;2023-12-20T01:44:16;3.53;;;2.50;;
18576;SDS011;9418;52.694;13.294;2023-12-20T01:46:42;2.30;;;2.20;;
18576;SDS011;9418;52.694;13.294;2023-12-20T01:49:09;2.60;;;2.50;;
18576;SDS011;9418;52.694;13.294;2023-12-20T01:51:37;2.90;;;2.80;;
18576;SDS011;9418;52.694;13.294;2023-12-20T01:54:04;3.07;;;2.87;;
18576;SDS011;9418;52.694;13.294;2023-12-20T01:56:31;4.27;;;3.20;;
18576;SDS011;9418;52.694;13.294;2023-12-20T01:58:58;2.43;;;2.33;;
18576;SDS011;9418;52.694;13.294;2023-12-20T02:01:26;2.80;;;2.70;;
18576;SDS011;9418;52.694;13.294;2023-12-20T02:03:53;2.30;;;2.20;;
18576;SDS011;9418;52.694;13.294;2023-12-20T02:06:20;3.00;;;2.80;;
18576;SDS011;9418;52.694;13.294;2023-12-20T02:08:50;3.57;;;2.57;;
18576;SDS011;9418;52.694;13.294;2023-12-20T02:11:17;2.93;;;2.43;;
18576;SDS011;9418;52.694;13.294;2023-12-20T02:13:44;3.00;;;2.80;;
18576;SDS011;9418;52.694;13.294;2023-12-20T02:16:10;2.97;;;2.70;;
18576;SDS011;9418;52.694;13.294;2023-12-20T02:18:37;3.43;;;3.00;;
18576;SDS011;9418;52.694;13.294;2023-12-20T02:21:04;2.57;;;2.37;;
18576;SDS011;9418;52.694;13.294;2023-12-20T02:23:32;3.10;;;2.80;;
18576;SDS011;9418;52.694;13.294;2023-12-20T02:25:58;3.27;;;3.07;;
18576;SDS011;9418;52.694;13.294;2023-12-20T02:28:25;3.00;;;2.90;;
18576;SDS011;9418;52.694;13.294;2023-12-20T02:30:52;5.27;;;2.97;;
18576;SDS011;9418;52.694;13.294;2023-12-20T02:33:19;4.53;;;2.77;;
18576;SDS011;9418;52.694;13.294;2023-12-20T02:35:45;3.90;;;2.63;;
18576;SDS011;9418;52.694;13.294;2023-12-20T02:38:12;3.57;;;2.67;;
18576;SDS011;9418;52.694;13.294;2023-12-20T02:40:40;2.57;;;2.40;;
18576;SDS011;9418;52.694;13.294;2023-12-20T02:43:07;3.87;;;2.77;;
18576;SDS011;9418;52.694;13.294;2023-12-20T02:45:33;4.40;;;2.60;;
18576;SDS011;9418;52.694;13.294;2023-12-20T02:48:00;3.60;;;2.80;;
18576;SDS011;9418;52.694;13.294;2023-12-20T02:50:26;2.43;;;2.23;;
18576;SDS011;9418;52.694;13.294;2023-12-20T02:52:53;2.70;;;2.40;;
18576;SDS011;9418;52.694;13.294;2023-12-20T02:55:19;2.10;;;2.00;;
18576;SDS011;9418;52.694;13.294;2023-12-20T02:57:47;1.80;;;1.70;;
18576;SDS011;9418;52.694;13.294;2023-12-20T03:00:14;5.77;;;2.43;;
18576;SDS011;9418;52.694;13.294;2023-12-20T03:02:41;3.37;;;2.23;;
18576;SDS011;9418;52.694;13.294;2023-12-20T03:05:07;2.17;;;1.97;;
18576;SDS011;9418;52.694;13.294;2023-12-20T03:07:34;3.63;;;2.23;;
18576;SDS011;9418;52.694;13.294;2023-12-20T03:10:03;4.30;;;2.20;;
18576;SDS011;9418;52.694;13.294;2023-12-20T03:12:31;8.33;;;2.50;;
18576;SDS011;9418;52.694;13.294;2023-12-20T03:14:59;4.80;;;1.90;;
18576;SDS011;9418;52.694;13.294;2023-12-20T03:17:25;4.70;;;3.33;;
18576;SDS011;9418;52.694;13.294;2023-12-20T03:19:52;5.70;;;2.23;;
18576;SDS011;9418;52.694;13.294;2023-12-20T03:22:18;4.87;;;2.10;;
18576;SDS011;9418;52.694;13.294;2023-12-20T03:24:45;8.20;;;2.77;;
18576;SDS011;9418;52.694;13.294;2023-12-20T03:27:11;4.50;;;1.90;;
18576;SDS011;9418;52.694;13.294;2023-12-20T03:29:38;4.57;;;1.50;;
18576;SDS011;9418;52.694;13.294;2023-12-20T03:32:06;2.60;;;1.40;;
18576;SDS011;9418;52.694;13.294;2023-12-20T03:34:33;2.63;;;1.47;;
18576;SDS011;9418;52.694;13.294;2023-12-20T03:37:00;1.83;;;1.27;;
18576;SDS011;9418;52.694;13.294;2023-12-20T03:39:26;2.97;;;1.90;;
18576;SDS011;9418;52.694;13.294;2023-12-20T03:41:53;2.93;;;1.27;;
18576;SDS011;9418;52.694;13.294;2023-12-20T03:44:19;6.37;;;1.80;;
18576;SDS011;9418;52.694;13.294;2023-12-20T03:46:46;9.83;;;2.20;;
18576;SDS011;9418;52.694;13.294;2023-12-20T03:49:15;7.60;;;2.10;;
18576;SDS011;9418;52.694;13.294;2023-12-20T03:51:42;4.40;;;1.40;;
18576;SDS011;9418;52.694;13.294;2023-12-20T03:54:08;3.63;;;1.70;;
18576;SDS011;9418;52.694;13.294;2023-12-20T03:56:35;6.67;;;1.80;;
18576;SDS011;9418;52.694;13.294;2023-12-20T03:59:01;4.00;;;1.63;;
18576;SDS011;9418;52.694;13.294;2023-12-20T04:01:28;1.57;;;1.40;;
18576;SDS011;9418;52.694;13.294;2023-12-20T04:03:55;5.73;;;1.70;;
18576;SDS011;9418;52.694;13.294;2023-12-20T04:06:23;6.70;;;2.10;;
18576;SDS011;9418;52.694;13.294;2023-12-20T04:08:49;7.20;;;2.03;;
18576;SDS011;9418;52.694;13.294;2023-12-20T04:11:16;5.03;;;1.63;;
18576;SDS011;9418;52.694;13.294;2023-12-20T04:13:42;17.10;;;2.30;;
18576;SDS011;9418;52.694;13.294;2023-12-20T04:16:09;4.93;;;1.90;;
18576;SDS011;9418;52.694;13.294;2023-12-20T04:18:35;7.80;;;1.50;;
18576;SDS011;9418;52.694;13.294;2023-12-20T04:21:02;12.53;;;1.80;;
18576;SDS011;9418;52.694;13.294;2023-12-20T04:23:30;7.10;;;1.90;;
18576;SDS011;9418;52.694;13.294;2023-12-20T04:25:57;3.17;;;1.30;;
18576;SDS011;9418;52.694;13.294;2023-12-20T04:28:24;10.60;;;1.80;;
18576;SDS011;9418;52.694;13.294;2023-12-20T04:30:50;6.30;;;1.80;;
18576;SDS011;9418;52.694;13.294;2023-12-20T04:33:17;3.53;;;1.30;;
18576;SDS011;9418;52.694;13.294;2023-12-20T04:35:43;8.03;;;1.60;;
18576;SDS011;9418;52.694;13.294;2023-12-20T04:38:11;5.77;;;1.60;;
18576;SDS011;9418;52.694;13.294;2023-12-20T04:40:39;15.60;;;1.70;;
18576;SDS011;9418;52.694;13.294;2023-12-20T04:43:06;5.30;;;1.97;;
18576;SDS011;9418;52.694;13.294;2023-12-20T04:45:32;4.40;;;1.60;;
18576;SDS011;9418;52.694;13.294;2023-12-20T04:47:59;5.73;;;1.60;;
18576;SDS011;9418;52.694;13.294;2023-12-20T04:50:26;2.77;;;1.73;;
18576;SDS011;9418;52.694;13.294;2023-12-20T04:52:52;4.20;;;1.27;;
18576;SDS011;9418;52.694;13.294;2023-12-20T04:55:19;4.70;;;1.67;;
18576;SDS011;9418;52.694;13.294;2023-12-20T04:57:47;13.77;;;1.43;;
18576;SDS011;9418;52.694;13.294;2023-12-20T05:00:14;7.13;;;1.60;;
18576;SDS011;9418;52.694;13.294;2023-12-20T05:02:41;4.20;;;1.63;;
18576;SDS011;9418;52.694;13.294;2023-12-20T05:05:07;2.70;;;1.53;;
18576;SDS011;9418;52.694;13.294;2023-12-20T05:07:34;6.47;;;1.70;;
18576;SDS011;9418;52.694;13.294;2023-12-20T05:10:01;7.10;;;1.83;;
18576;SDS011;9418;52.694;13.294;2023-12-20T05:12:29;6.40;;;1.67;;
18576;SDS011;9418;52.694;13.294;2023-12-20T05:14:57;7.83;;;1.63;;
18576;SDS011;9418;52.694;13.294;2023-12-20T05:17:24;4.07;;;1.37;;
18576;SDS011;9418;52.694;13.294;2023-12-20T05:19:51;3.57;;;1.10;;
18576;SDS011;9418;52.694;13.294;2023-12-20T05:22:18;6.87;;;2.50;;
18576;SDS011;9418;52.694;13.294;2023-12-20T05:24:45;6.60;;;1.80;;
18576;SDS011;9418;52.694;13.294;2023-12-20T05:27:11;6.57;;;2.60;;
18576;SDS011;9418;52.694;13.294;2023-12-20T05:29:38;8.53;;;2.30;;
18576;SDS011;9418;52.694;13.294;2023-12-20T05:32:06;8.00;;;1.87;;
18576;SDS011;9418;52.694;13.294;2023-12-20T05:34:32;4.40;;;1.57;;
18576;SDS011;9418;52.694;13.294;2023-12-20T05:36:59;6.63;;;2.07;;
18576;SDS011;9418;52.694;13.294;2023-12-20T05:39:26;8.60;;;1.70;;
18576;SDS011;9418;52.694;13.294;2023-12-20T05:41:53;8.73;;;2.40;;
18576;SDS011;9418;52.694;13.294;2023-12-20T05:44:19;7.00;;;2.23;;
18576;SDS011;9418;52.694;13.294;2023-12-20T05:46:46;8.63;;;1.97;;
18576;SDS011;9418;52.694;13.294;2023-12-20T05:49:14;10.93;;;2.03;;
18576;SDS011;9418;52.694;13.294;2023-12-20T05:51:40;2.57;;;1.60;;
18576;SDS011;9418;52.694;13.294;2023-12-20T05:54:07;4.40;;;2.23;;
18576;SDS011;9418;52.694;13.294;2023-12-20T05:56:34;7.63;;;2.13;;
18576;SDS011;9418;52.694;13.294;2023-12-20T05:59:01;7.80;;;1.63;;
18576;SDS011;9418;52.694;13.294;2023-12-20T06:01:28;7.80;;;2.03;;
18576;SDS011;9418;52.694;13.294;2023-12-20T06:03:54;10.37;;;3.10;;
18576;SDS011;9418;52.694;13.294;2023-12-20T06:06:22;7.37;;;2.43;;
18576;SDS011;9418;52.694;13.294;2023-12-20T06:08:49;5.90;;;2.13;;
18576;SDS011;9418;52.694;13.294;2023-12-20T06:11:15;10.03;;;2.27;;
18576;SDS011;9418;52.694;13.294;2023-12-20T06:13:42;5.47;;;1.90;;
18576;SDS011;9418;52.694;13.294;2023-12-20T06:16:09;9.83;;;1.80;;
18576;SDS011;9418;52.694;13.294;2023-12-20T06:18:35;5.13;;;1.80;;
18576;SDS011;9418;52.694;13.294;2023-12-20T06:21:02;7.33;;;2.17;;
18576;SDS011;9418;52.694;13.294;2023-12-20T06:23:30;4.20;;;1.60;;
18576;SDS011;9418;52.694;13.294;2023-12-20T06:25:57;18.83;;;2.40;;
18576;SDS011;9418;52.694;13.294;2023-12-20T06:28:23;13.60;;;1.97;;
18576;SDS011;9418;52.694;13.294;2023-12-20T06:30:50;7.30;;;2.23;;
18576;SDS011;9418;52.694;13.294;2023-12-20T06:33:19;2.70;;;1.33;;
18576;SDS011;9418;52.694;13.294;2023-12-20T06:35:47;6.23;;;1.47;;
18576;SDS011;9418;52.694;13.294;2023-12-20T06:38:14;7.63;;;2.40;;
18576;SDS011;9418;52.694;13.294;2023-12-20T06:40:42;6.87;;;1.90;;
18576;SDS011;9418;52.694;13.294;2023-12-20T06:43:08;8.83;;;1.77;;
18576;SDS011;9418;52.694;13.294;2023-12-20T06:45:35;8.53;;;2.57;;
18576;SDS011;9418;52.694;13.294;2023-12-20T06:48:02;14.33;;;2.20;;
18576;SDS011;9418;52.694;13.294;2023-12-20T06:50:28;4.90;;;1.80;;
18576;SDS011;9418;52.694;13.294;2023-12-20T06:52:55;7.93;;;1.93;;
18576;SDS011;9418;52.694;13.294;2023-12-20T06:55:22;11.67;;;2.40;;
18576;SDS011;9418;52.694;13.294;2023-12-20T06:57:50;8.40;;;2.30;;
18576;SDS011;9418;52.694;13.294;2023-12-20T07:00:16;4.83;;;1.60;;
18576;SDS011;9418;52.694;13.294;2023-12-20T07:02:45;17.33;;;3.30;;
18576;SDS011;9418;52.694;13.294;2023-12-20T07:05:12;8.70;;;1.70;;
18576;SDS011;9418;52.694;13.294;2023-12-20T07:07:41;5.03;;;1.73;;
18576;SDS011;9418;52.694;13.294;2023-12-20T07:10:08;6.43;;;2.03;;
18576;SDS011;9418;52.694;13.294;2023-12-20T07:12:35;9.93;;;2.57;;
18576;SDS011;9418;52.694;13.294;2023-12-20T07:15:03;8.87;;;2.00;;
18576;SDS011;9418;52.694;13.294;2023-12-20T07:17:30;4.23;;;1.70;;
18576;SDS011;9418;52.694;13.294;2023-12-20T07:19:58;4.43;;;1.70;;
18576;SDS011;9418;52.694;13.294;2023-12-20T07:22:28;7.90;;;2.07;;
18576;SDS011;9418;52.694;13.294;2023-12-20T07:24:55;11.00;;;2.13;;
18576;SDS011;9418;52.694;13.294;2023-12-20T07:27:21;9.20;;;2.30;;
18576;SDS011;9418;52.694;13.294;2023-12-20T07:29:48;5.07;;;1.73;;
18576;SDS011;9418;52.694;13.294;2023-12-20T07:32:16;10.33;;;2.37;;
18576;SDS011;9418;52.694;13.294;2023-12-20T07:34:42;8.23;;;2.50;;
18576;SDS011;9418;52.694;13.294;2023-12-20T07:37:09;12.83;;;1.80;;
18576;SDS011;9418;52.694;13.294;2023-12-20T07:39:36;7.50;;;2.40;;
18576;SDS011;9418;52.694;13.294;2023-12-20T07:42:03;8.53;;;2.30;;
18576;SDS011;9418;52.694;13.294;2023-12-20T07:44:30;3.97;;;2.10;;
18576;SDS011;9418;52.694;13.294;2023-12-20T07:46:57;9.50;;;2.00;;
18576;SDS011;9418;52.694;13.294;2023-12-20T07:49:25;10.47;;;3.50;;
18576;SDS011;9418;52.694;13.294;2023-12-20T07:51:51;6.53;;;2.07;;
18576;SDS011;9418;52.694;13.294;2023-12-20T07:54:18;9.63;;;2.80;;
18576;SDS011;9418;52.694;13.294;2023-12-20T07:56:45;9.90;;;2.33;;
18576;SDS011;9418;52.694;13.294;2023-12-20T07:59:12;8.10;;;2.50;;
18576;SDS011;9418;52.694;13.294;2023-12-20T08:01:38;6.30;;;2.10;;
18576;SDS011;9418;52.694;13.294;2023-12-20T08:04:05;9.33;;;2.47;;
18576;SDS011;9418;52.694;13.294;2023-12-20T08:06:33;8.93;;;2.13;;
18576;SDS011;9418;52.694;13.294;2023-12-20T08:09:00;8.53;;;2.60;;
18576;SDS011;9418;52.694;13.294;2023-12-20T08:11:26;10.67;;;2.43;;
18576;SDS011;9418;52.694;13.294;2023-12-20T08:13:53;9.80;;;2.50;;
18576;SDS011;9418;52.694;13.294;2023-12-20T08:16:19;9.53;;;2.43;;
18576;SDS011;9418;52.694;13.294;2023-12-20T08:18:46;6.30;;;2.63;;
18576;SDS011;9418;52.694;13.294;2023-12-20T08:21:13;8.50;;;1.92;;
18576;SDS011;9418;52.694;13.294;2023-12-20T08:23:41;17.40;;;2.70;;
18576;SDS011;9418;52.694;13.294;2023-12-20T08:26:08;11.33;;;2.77;;
18576;SDS011;9418;52.694;13.294;2023-12-20T08:28:34;11.20;;;2.20;;
18576;SDS011;9418;52.694;13.294;2023-12-20T08:31:02;7.43;;;2.30;;
18576;SDS011;9418;52.694;13.294;2023-12-20T08:33:29;10.57;;;2.23;;
18576;SDS011;9418;52.694;13.294;2023-12-20T08:35:55;13.43;;;2.53;;
18576;SDS011;9418;52.694;13.294;2023-12-20T08:38:21;8.17;;;2.67;;
18576;SDS011;9418;52.694;13.294;2023-12-20T08:40:49;6.63;;;2.30;;
18576;SDS011;9418;52.694;13.294;2023-12-20T08:43:15;5.17;;;2.10;;
18576;SDS011;9418;52.694;13.294;2023-12-20T08:45:43;12.30;;;2.67;;
18576;SDS011;9418;52.694;13.294;2023-12-20T08:48:09;6.10;;;2.13;;
18576;SDS011;9418;52.694;13.294;2023-12-20T08:50:36;10.03;;;2.47;;
18576;SDS011;9418;52.694;13.294;2023-12-20T08:53:03;7.03;;;1.80;;
18576;SDS011;9418;52.694;13.294;2023-12-20T08:55:30;4.57;;;1.90;;
18576;SDS011;9418;52.694;13.294;2023-12-20T08:57:58;5.80;;;1.73;;
18576;SDS011;9418;52.694;13.294;2023-12-20T09:00:25;10.00;;;2.83;;
18576;SDS011;9418;52.694;13.294;2023-12-20T09:02:52;3.50;;;1.80;;
18576;SDS011;9418;52.694;13.294;2023-12-20T09:05:19;20.33;;;2.97;;
18576;SDS011;9418;52.694;13.294;2023-12-20T09:07:45;13.30;;;3.23;;
18576;SDS011;9418;52.694;13.294;2023-12-20T09:10:12;6.43;;;1.73;;
18576;SDS011;9418;52.694;13.294;2023-12-20T09:12:39;7.87;;;1.97;;
18576;SDS011;9418;52.694;13.294;2023-12-20T09:15:08;9.70;;;2.93;;
18576;SDS011;9418;52.694;13.294;2023-12-20T09:17:35;13.90;;;3.47;;
18576;SDS011;9418;52.694;13.294;2023-12-20T09:20:02;7.77;;;2.40;;
18576;SDS011;9418;52.694;13.294;2023-12-20T09:22:31;7.60;;;2.40;;
18576;SDS011;9418;52.694;13.294;2023-12-20T09:24:58;7.43;;;2.20;;
18576;SDS011;9418;52.694;13.294;2023-12-20T09:27:25;5.33;;;2.00;;
18576;SDS011;9418;52.694;13.294;2023-12-20T09:29:51;5.83;;;2.40;;
18576;SDS011;9418;52.694;13.294;2023-12-20T09:32:19;7.77;;;2.13;;
18576;SDS011;9418;52.694;13.294;2023-12-20T09:34:46;7.03;;;2.23;;
18576;SDS011;9418;52.694;13.294;2023-12-20T09:37:13;5.90;;;2.97;;
18576;SDS011;9418;52.694;13.294;2023-12-20T09:39:40;9.10;;;2.87;;
18576;SDS011;9418;52.694;13.294;2023-12-20T09:42:07;11.90;;;2.70;;
18576;SDS011;9418;52.694;13.294;2023-12-20T09:44:34;14.77;;;2.90;;
18576;SDS011;9418;52.694;13.294;2023-12-20T09:47:01;8.87;;;3.23;;
18576;SDS011;9418;52.694;13.294;2023-12-20T09:49:31;9.27;;;2.60;;
18576;SDS011;9418;52.694;13.294;2023-12-20T09:51:59;12.97;;;3.10;;
18576;SDS011;9418;52.694;13.294;2023-12-20T09:54:27;12.70;;;3.10;;
18576;SDS011;9418;52.694;13.294;2023-12-20T09:56:55;10.57;;;2.30;;
18576;SDS011;9418;52.694;13.294;2023-12-20T09:59:22;13.53;;;2.60;;
18576;SDS011;9418;52.694;13.294;2023-12-20T10:01:49;5.30;;;2.30;;
18576;SDS011;9418;52.694;13.294;2023-12-20T10:04:21;12.53;;;2.90;;
18576;SDS011;9418;52.694;13.294;2023-12-20T10:06:49;6.63;;;2.60;;
18576;SDS011;9418;52.694;13.294;2023-12-20T10:09:17;7.43;;;2.50;;
18576;SDS011;9418;52.694;13.294;2023-12-20T10:11:43;6.33;;;2.17;;
18576;SDS011;9418;52.694;13.294;2023-12-20T10:14:11;14.17;;;2.73;;
18576;SDS011;9418;52.694;13.294;2023-12-20T10:16:39;5.60;;;2.10;;
18576;SDS011;9418;52.694;13.294;2023-12-20T10:19:07;11.03;;;2.80;;
18576;SDS011;9418;52.694;13.294;2023-12-20T10:21:33;7.17;;;3.03;;
18576;SDS011;9418;52.694;13.294;2023-12-20T10:24:01;11.93;;;3.10;;
18576;SDS011;9418;52.694;13.294;2023-12-20T10:26:28;11.20;;;2.90;;
18576;SDS011;9418;52.694;13.294;2023-12-20T10:28:55;13.13;;;3.23;;
18576;SDS011;9418;52.694;13.294;2023-12-20T10:31:26;14.40;;;2.93;;
18576;SDS011;9418;52.694;13.294;2023-12-20T10:33:53;9.63;;;2.50;;
18576;SDS011;9418;52.694;13.294;2023-12-20T10:36:22;10.63;;;2.63;;
18576;SDS011;9418;52.694;13.294;2023-12-20T10:38:51;8.40;;;2.17;;
18576;SDS011;9418;52.694;13.294;2023-12-20T10:41:21;8.27;;;2.67;;
18576;SDS011;9418;52.694;13.294;2023-12-20T10:43:52;8.10;;;2.90;;
18576;SDS011;9418;52.694;13.294;2023-12-20T10:46:20;10.23;;;3.00;;
18576;SDS011;9418;52.694;13.294;2023-12-20T10:48:47;9.33;;;2.80;;
18576;SDS011;9418;52.694;13.294;2023-12-20T10:51:17;10.30;;;2.57;;
18576;SDS011;9418;52.694;13.294;2023-12-20T10:53:45;11.77;;;3.30;;
18576;SDS011;9418;52.694;13.294;2023-12-20T10:56:15;10.90;;;3.50;;
18576;SDS011;9418;52.694;13.294;2023-12-20T10:58:44;13.33;;;3.27;;
18576;SDS011;9418;52.694;13.294;2023-12-20T11:01:12;6.40;;;2.53;;
18576;SDS011;9418;52.694;13.294;2023-12-20T11:03:40;14.63;;;3.63;;
18576;SDS011;9418;52.694;13.294;2023-12-20T11:06:12;15.93;;;3.50;;
18576;SDS011;9418;52.694;13.294;2023-12-20T11:08:53;9.53;;;2.50;;
18576;SDS011;9418;52.694;13.294;2023-12-20T11:11:34;17.77;;;3.43;;
18576;SDS011;9418;52.694;13.294;2023-12-20T11:14:07;10.03;;;3.60;;
18576;SDS011;9418;52.694;13.294;2023-12-20T11:16:38;9.70;;;3.07;;
18576;SDS011;9418;52.694;13.294;2023-12-20T11:19:06;8.80;;;3.77;;
18576;SDS011;9418;52.694;13.294;2023-12-20T11:21:33;8.63;;;2.77;;
18576;SDS011;9418;52.694;13.294;2023-12-20T11:24:00;10.07;;;3.30;;
18576;SDS011;9418;52.694;13.294;2023-12-20T11:26:28;10.77;;;3.83;;
18576;SDS011;9418;52.694;13.294;2023-12-20T11:29:00;16.37;;;2.83;;
18576;SDS011;9418;52.694;13.294;2023-12-20T11:32:01;10.07;;;2.97;;
18576;SDS011;9418;52.694;13.294;2023-12-20T11:34:31;5.80;;;2.57;;
18576;SDS011;9418;52.694;13.294;2023-12-20T11:36:59;9.80;;;3.00;;
18576;SDS011;9418;52.694;13.294;2023-12-20T11:39:26;9.70;;;3.30;;
18576;SDS011;9418;52.694;13.294;2023-12-20T11:41:54;6.93;;;2.97;;
18576;SDS011;9418;52.694;13.294;2023-12-20T11:44:22;9.50;;;3.40;;
18576;SDS011;9418;52.694;13.294;2023-12-20T11:46:52;12.93;;;4.47;;
18576;SDS011;9418;52.694;13.294;2023-12-20T11:49:22;15.33;;;3.70;;
18576;SDS011;9418;52.694;13.294;2023-12-20T11:51:49;8.40;;;3.10;;
18576;SDS011;9418;52.694;13.294;2023-12-20T11:54:16;13.83;;;3.60;;
18576;SDS011;9418;52.694;13.294;2023-12-20T11:56:43;11.73;;;3.10;;
18576;SDS011;9418;52.694;13.294;2023-12-20T11:59:09;15.23;;;3.90;;
18576;SDS011;9418;52.694;13.294;2023-12-20T12:01:36;14.47;;;2.47;;
18576;SDS011;9418;52.694;13.294;2023-12-20T12:04:04;10.43;;;3.17;;
18576;SDS011;9418;52.694;13.294;2023-12-20T12:06:31;10.50;;;3.30;;
18576;SDS011;9418;52.694;13.294;2023-12-20T12:08:58;9.93;;;3.17;;
18576;SDS011;9418;52.694;13.294;2023-12-20T12:11:25;11.10;;;3.50;;
18576;SDS011;9418;52.694;13.294;2023-12-20T12:13:51;11.27;;;3.30;;
18576;SDS011;9418;52.694;13.294;2023-12-20T12:16:19;8.17;;;3.60;;
18576;SDS011;9418;52.694;13.294;2023-12-20T12:18:46;14.77;;;3.70;;
18576;SDS011;9418;52.694;13.294;2023-12-20T12:21:21;9.67;;;3.30;;
18576;SDS011;9418;52.694;13.294;2023-12-20T12:23:48;13.80;;;3.73;;
18576;SDS011;9418;52.694;13.294;2023-12-20T12:26:15;10.27;;;3.20;;
18576;SDS011;9418;52.694;13.294;2023-12-20T12:28:41;7.87;;;2.60;;
18576;SDS011;9418;52.694;13.294;2023-12-20T12:31:09;12.83;;;3.00;;
18576;SDS011;9418;52.694;13.294;2023-12-20T12:33:39;7.83;;;2.90;;
18576;SDS011;9418;52.694;13.294;2023-12-20T12:36:07;9.40;;;2.70;;
18576;SDS011;9418;52.694;13.294;2023-12-20T12:38:35;9.87;;;2.77;;
18576;SDS011;9418;52.694;13.294;2023-12-20T12:41:01;14.67;;;3.90;;
18576;SDS011;9418;52.694;13.294;2023-12-20T12:43:28;9.40;;;2.50;;
18576;SDS011;9418;52.694;13.294;2023-12-20T12:45:54;9.57;;;2.67;;
18576;SDS011;9418;52.694;13.294;2023-12-20T12:48:21;12.60;;;3.10;;
18576;SDS011;9418;52.694;13.294;2023-12-20T12:50:48;9.27;;;2.53;;
18576;SDS011;9418;52.694;13.294;2023-12-20T12:53:13;6.10;;;2.90;;
18576;SDS011;9418;52.694;13.294;2023-12-20T12:55:41;10.03;;;2.33;;
18576;SDS011;9418;52.694;13.294;2023-12-20T12:58:08;8.77;;;3.00;;
18576;SDS011;9418;52.694;13.294;2023-12-20T13:00:34;9.83;;;3.43;;
18576;SDS011;9418;52.694;13.294;2023-12-20T13:03:01;5.23;;;2.13;;
18576;SDS011;9418;52.694;13.294;2023-12-20T13:05:28;4.67;;;1.97;;
18576;SDS011;9418;52.694;13.294;2023-12-20T13:07:56;3.63;;;1.43;;
18576;SDS011;9418;52.694;13.294;2023-12-20T13:10:23;3.33;;;1.60;;
18576;SDS011;9418;52.694;13.294;2023-12-20T13:12:51;2.10;;;1.60;;
18576;SDS011;9418;52.694;13.294;2023-12-20T13:15:18;1.73;;;1.30;;
18576;SDS011;9418;52.694;13.294;2023-12-20T13:17:44;3.20;;;1.83;;
18576;SDS011;9418;52.694;13.294;2023-12-20T13:20:11;5.17;;;1.50;;
18576;SDS011;9418;52.694;13.294;2023-12-20T13:22:38;3.97;;;1.60;;
18576;SDS011;9418;52.694;13.294;2023-12-20T13:25:05;6.53;;;2.30;;
18576;SDS011;9418;52.694;13.294;2023-12-20T13:27:32;4.00;;;1.70;;
18576;SDS011;9418;52.694;13.294;2023-12-20T13:30:00;4.80;;;2.10;;
18576;SDS011;9418;52.694;13.294;2023-12-20T13:32:28;5.93;;;1.60;;
18576;SDS011;9418;52.694;13.294;2023-12-20T13:34:54;8.40;;;2.30;;
18576;SDS011;9418;52.694;13.294;2023-12-20T13:37:21;6.67;;;2.03;;
18576;SDS011;9418;52.694;13.294;2023-12-20T13:39:48;3.50;;;1.60;;
18576;SDS011;9418;52.694;13.294;2023-12-20T13:42:14;1.10;;;1.00;;
18576;SDS011;9418;52.694;13.294;2023-12-20T13:44:41;2.23;;;1.27;;
18576;SDS011;9418;52.694;13.294;2023-12-20T13:47:10;4.20;;;1.37;;
18576;SDS011;9418;52.694;13.294;2023-12-20T13:49:36;2.73;;;1.70;;
18576;SDS011;9418;52.694;13.294;2023-12-20T13:52:03;1.37;;;1.27;;
18576;SDS011;9418;52.694;13.294;2023-12-20T13:54:30;3.07;;;1.67;;
18576;SDS011;9418;52.694;13.294;2023-12-20T13:56:56;2.43;;;1.30;;
18576;SDS011;9418;52.694;13.294;2023-12-20T13:59:23;1.77;;;1.30;;
18576;SDS011;9418;52.694;13.294;2023-12-20T14:01:51;3.73;;;1.67;;
18576;SDS011;9418;52.694;13.294;2023-12-20T14:04:19;1.53;;;1.10;;
18576;SDS011;9418;52.694;13.294;2023-12-20T14:06:46;1.47;;;1.00;;
18576;SDS011;9418;52.694;13.294;2023-12-20T14:09:13;4.90;;;1.53;;
18576;SDS011;9418;52.694;13.294;2023-12-20T14:11:40;1.53;;;0.90;;
18576;SDS011;9418;52.694;13.294;2023-12-20T14:14:07;2.60;;;1.30;;
18576;SDS011;9418;52.694;13.294;2023-12-20T14:16:35;1.27;;;0.80;;
18576;SDS011;9418;52.694;13.294;2023-12-20T14:19:03;1.63;;;1.00;;
18576;SDS011;9418;52.694;13.294;2023-12-20T14:21:33;3.33;;;0.87;;
18576;SDS011;9418;52.694;13.294;2023-12-20T14:24:00;2.60;;;1.00;;
18576;SDS011;9418;52.694;13.294;2023-12-20T14:26:26;3.77;;;1.60;;
18576;SDS011;9418;52.694;13.294;2023-12-20T14:28:53;3.70;;;1.73;;
18576;SDS011;9418;52.694;13.294;2023-12-20T14:31:20;6.00;;;2.20;;
18576;SDS011;9418;52.694;13.294;2023-12-20T14:33:49;1.10;;;1.00;;
18576;SDS011;9418;52.694;13.294;2023-12-20T14:36:15;2.03;;;1.20;;
18576;SDS011;9418;52.694;13.294;2023-12-20T14:38:44;1.27;;;1.10;;
18576;SDS011;9418;52.694;13.294;2023-12-20T14:41:11;1.53;;;1.00;;
18576;SDS011;9418;52.694;13.294;2023-12-20T14:43:38;1.93;;;1.00;;
18576;SDS011;9418;52.694;13.294;2023-12-20T14:46:04;7.90;;;1.37;;